sensor_id;sensor_type;location;lat;lon;timestamp;pressure;altitude;pressure_sealevel;temperature;humidity
54918;BME280;40818;50.562;7.454;2023-07-13T00:03:43;97727.56;;;16.78;60.08
54918;BME280;40818;50.562;7.454;2023-07-13T00:13:47;97728.31;;;16.51;60.69
54918;BME280;40818;50.562;7.454;2023-07-13T00:23:53;97717.97;;;16.30;61.46
54918;BME280;40818;50.562;7.454;2023-07-13T00:33:56;97707.31;;;16.12;62.11
54918;BME280;40818;50.562;7.454;2023-07-13T00:44:03;97706.31;;;15.93;62.80
54918;BME280;40818;50.562;7.454;2023-07-13T00:54:10;97706.22;;;15.74;63.62
54918;BME280;40818;50.562;7.454;2023-07-13T01:04:17;97708.53;;;15.57;64.21
54918;BME280;40818;50.562;7.454;2023-07-13T01:14:21;97709.84;;;15.42;65.00
54918;BME280;40818;50.562;7.454;2023-07-13T01:24:27;97719.59;;;15.30;65.73
54918;BME280;40818;50.562;7.454;2023-07-13T01:34:30;97706.59;;;15.18;66.14
54918;BME280;40818;50.562;7.454;2023-07-13T01:44:36;97711.78;;;15.09;67.35
54918;BME280;40818;50.562;7.454;2023-07-13T01:54:40;97698.38;;;15.02;67.90
54918;BME280;40818;50.562;7.454;2023-07-13T02:04:46;97704.25;;;14.94;68.77
54918;BME280;40818;50.562;7.454;2023-07-13T02:14:49;97701.44;;;14.86;69.06
54918;BME280;40818;50.562;7.454;2023-07-13T02:24:55;97707.31;;;14.78;69.12
54918;BME280;40818;50.562;7.454;2023-07-13T02:34:59;97713.63;;;14.76;69.19
54918;BME280;40818;50.562;7.454;2023-07-13T02:45:07;97722.94;;;14.68;69.73
54918;BME280;40818;50.562;7.454;2023-07-13T02:55:13;97721.75;;;14.61;70.17
54918;BME280;40818;50.562;7.454;2023-07-13T03:05:19;97714.16;;;14.58;70.24
54918;BME280;40818;50.562;7.454;2023-07-13T03:15:23;97721.41;;;14.55;70.31
54918;BME280;40818;50.562;7.454;2023-07-13T03:25:31;97722.63;;;14.50;70.47
54918;BME280;40818;50.562;7.454;2023-07-13T03:35:40;97729.75;;;14.48;71.55
54918;BME280;40818;50.562;7.454;2023-07-13T03:45:47;97744.94;;;14.55;71.43
54918;BME280;40818;50.562;7.454;2023-07-13T03:55:50;97737.78;;;14.57;70.65
54918;BME280;40818;50.562;7.454;2023-07-13T04:05:57;97748.59;;;14.63;70.26
54918;BME280;40818;50.562;7.454;2023-07-13T04:16:01;97745.59;;;14.68;70.13
54918;BME280;40818;50.562;7.454;2023-07-13T04:26:07;97759.88;;;14.64;71.88
54918;BME280;40818;50.562;7.454;2023-07-13T04:36:11;97771.63;;;14.58;73.09
54918;BME280;40818;50.562;7.454;2023-07-13T04:46:17;97771.19;;;14.53;74.82
54918;BME280;40818;50.562;7.454;2023-07-13T04:56:21;97784.63;;;14.37;79.00
54918;BME280;40818;50.562;7.454;2023-07-13T05:06:27;97789.38;;;14.43;81.37
54918;BME280;40818;50.562;7.454;2023-07-13T05:16:31;97783.13;;;14.56;81.45
54918;BME280;40818;50.562;7.454;2023-07-13T05:26:38;97787.88;;;15.15;81.10
54918;BME280;40818;50.562;7.454;2023-07-13T05:36:41;97787.41;;;16.24;76.89
54918;BME280;40818;50.562;7.454;2023-07-13T05:46:47;97798.09;;;17.20;71.09
54918;BME280;40818;50.562;7.454;2023-07-13T05:56:51;97799.53;;;18.00;69.27
54918;BME280;40818;50.562;7.454;2023-07-13T06:06:57;97813.13;;;18.77;65.66
54918;BME280;40818;50.562;7.454;2023-07-13T06:17:00;97826.22;;;19.49;63.98
54918;BME280;40818;50.562;7.454;2023-07-13T06:27:06;97833.91;;;21.30;59.26
54918;BME280;40818;50.562;7.454;2023-07-13T06:37:10;97819.88;;;23.20;52.29
54918;BME280;40818;50.562;7.454;2023-07-13T06:47:16;97827.00;;;24.68;47.98
54918;BME280;40818;50.562;7.454;2023-07-13T06:57:19;97827.94;;;25.82;44.01
54918;BME280;40818;50.562;7.454;2023-07-13T07:07:26;97823.69;;;26.30;40.85
54918;BME280;40818;50.562;7.454;2023-07-13T07:17:29;97828.75;;;26.11;40.99
54918;BME280;40818;50.562;7.454;2023-07-13T07:27:35;97835.16;;;26.99;40.19
54918;BME280;40818;50.562;7.454;2023-07-13T07:37:39;97827.53;;;27.89;37.32
54918;BME280;40818;50.562;7.454;2023-07-13T07:47:45;97828.22;;;28.30;36.97
54918;BME280;40818;50.562;7.454;2023-07-13T07:57:48;97824.38;;;29.28;35.96
54918;BME280;40818;50.562;7.454;2023-07-13T08:07:54;97840.47;;;28.90;35.60
54918;BME280;40818;50.562;7.454;2023-07-13T08:17:58;97833.44;;;28.57;36.86
54918;BME280;40818;50.562;7.454;2023-07-13T08:28:04;97830.06;;;27.64;36.82
54918;BME280;40818;50.562;7.454;2023-07-13T08:38:08;97825.88;;;26.74;36.91
54918;BME280;40818;50.562;7.454;2023-07-13T08:48:19;97834.16;;;25.61;38.09
54918;BME280;40818;50.562;7.454;2023-07-13T08:58:25;97824.84;;;25.00;39.56
54918;BME280;40818;50.562;7.454;2023-07-13T09:08:40;97827.19;;;24.52;40.60
54918;BME280;40818;50.562;7.454;2023-07-13T09:18:51;97821.31;;;24.20;40.49
54918;BME280;40818;50.562;7.454;2023-07-13T09:29:03;97824.16;;;24.55;42.81
54918;BME280;40818;50.562;7.454;2023-07-13T09:39:14;97821.47;;;24.48;42.44
54918;BME280;40818;50.562;7.454;2023-07-13T09:49:26;97827.84;;;24.91;42.07
54918;BME280;40818;50.562;7.454;2023-07-13T09:59:32;97817.69;;;25.22;41.65
54918;BME280;40818;50.562;7.454;2023-07-13T10:09:39;97817.16;;;25.55;39.33
54918;BME280;40818;50.562;7.454;2023-07-13T10:19:43;97827.53;;;25.50;40.68
54918;BME280;40818;50.562;7.454;2023-07-13T10:29:57;97831.09;;;25.14;40.45
54918;BME280;40818;50.562;7.454;2023-07-13T10:40:06;97832.72;;;25.59;40.30
54918;BME280;40818;50.562;7.454;2023-07-13T10:50:21;97838.81;;;26.84;38.42
54918;BME280;40818;50.562;7.454;2023-07-13T11:00:25;97841.06;;;26.74;37.93
54918;BME280;40818;50.562;7.454;2023-07-13T11:10:50;97842.53;;;26.00;35.58
54918;BME280;40818;50.562;7.454;2023-07-13T11:21:12;97838.66;;;27.13;34.86
54918;BME280;40818;50.562;7.454;2023-07-13T11:31:20;97854.16;;;28.09;33.52
54918;BME280;40818;50.562;7.454;2023-07-13T11:41:27;97859.56;;;27.63;33.97
54918;BME280;40818;50.562;7.454;2023-07-13T11:51:35;97854.28;;;26.61;35.29
54918;BME280;40818;50.562;7.454;2023-07-13T12:01:43;97869.75;;;25.95;37.28
54918;BME280;40818;50.562;7.454;2023-07-13T12:11:50;97865.34;;;26.09;36.04
54918;BME280;40818;50.562;7.454;2023-07-13T12:21:55;97869.56;;;25.68;35.96
54918;BME280;40818;50.562;7.454;2023-07-13T12:32:02;97873.22;;;25.17;36.84
54918;BME280;40818;50.562;7.454;2023-07-13T12:42:19;97886.75;;;24.79;37.06
54918;BME280;40818;50.562;7.454;2023-07-13T12:52:32;97899.59;;;24.46;37.94
54918;BME280;40818;50.562;7.454;2023-07-13T13:02:36;97901.72;;;24.20;39.44
54918;BME280;40818;50.562;7.454;2023-07-13T13:12:43;97902.38;;;23.69;41.64
54918;BME280;40818;50.562;7.454;2023-07-13T13:22:46;97902.84;;;23.73;42.05
54918;BME280;40818;50.562;7.454;2023-07-13T13:32:52;97898.63;;;23.64;41.28
54918;BME280;40818;50.562;7.454;2023-07-13T13:42:56;97905.75;;;23.78;41.80
54918;BME280;40818;50.562;7.454;2023-07-13T13:53:02;97906.41;;;23.80;40.40
54918;BME280;40818;50.562;7.454;2023-07-13T14:03:08;97904.25;;;23.46;41.19
54918;BME280;40818;50.562;7.454;2023-07-13T14:13:21;97902.41;;;23.00;42.30
54918;BME280;40818;50.562;7.454;2023-07-13T14:23:26;97912.00;;;23.24;43.15
54918;BME280;40818;50.562;7.454;2023-07-13T14:33:32;97914.34;;;23.42;42.74
54918;BME280;40818;50.562;7.454;2023-07-13T14:43:36;97906.31;;;23.35;44.84
54918;BME280;40818;50.562;7.454;2023-07-13T14:53:42;97897.69;;;23.95;42.38
54918;BME280;40818;50.562;7.454;2023-07-13T15:03:48;97901.25;;;24.02;42.15
54918;BME280;40818;50.562;7.454;2023-07-13T15:13:55;97892.41;;;24.10;42.82
54918;BME280;40818;50.562;7.454;2023-07-13T15:23:58;97889.38;;;24.28;42.09
54918;BME280;40818;50.562;7.454;2023-07-13T15:34:10;97881.88;;;24.16;39.98
54918;BME280;40818;50.562;7.454;2023-07-13T15:44:23;97895.09;;;24.31;41.20
54918;BME280;40818;50.562;7.454;2023-07-13T15:54:30;97876.81;;;24.22;41.31
54918;BME280;40818;50.562;7.454;2023-07-13T16:04:33;97873.81;;;23.95;41.00
54918;BME280;40818;50.562;7.454;2023-07-13T16:14:40;97872.25;;;23.85;41.05
54918;BME280;40818;50.562;7.454;2023-07-13T16:24:43;97868.75;;;23.70;40.12
54918;BME280;40818;50.562;7.454;2023-07-13T16:34:50;97875.66;;;23.41;40.56
54918;BME280;40818;50.562;7.454;2023-07-13T16:44:53;97871.56;;;23.07;41.96
54918;BME280;40818;50.562;7.454;2023-07-13T16:54:59;97867.75;;;22.87;42.28
54918;BME280;40818;50.562;7.454;2023-07-13T17:05:05;97867.34;;;22.75;42.95
54918;BME280;40818;50.562;7.454;2023-07-13T17:15:12;97870.94;;;22.50;44.06
54918;BME280;40818;50.562;7.454;2023-07-13T17:25:15;97873.03;;;22.15;45.27
54918;BME280;40818;50.562;7.454;2023-07-13T17:35:25;97884.00;;;21.96;45.52
54918;BME280;40818;50.562;7.454;2023-07-13T17:45:30;97890.00;;;21.73;46.72
54918;BME280;40818;50.562;7.454;2023-07-13T17:55:36;97891.00;;;21.31;47.38
54918;BME280;40818;50.562;7.454;2023-07-13T18:05:40;97907.75;;;20.89;49.74
54918;BME280;40818;50.562;7.454;2023-07-13T18:15:46;97920.84;;;20.56;51.82
54918;BME280;40818;50.562;7.454;2023-07-13T18:25:52;97928.75;;;20.21;53.58
54918;BME280;40818;50.562;7.454;2023-07-13T18:35:59;97935.63;;;19.88;56.02
54918;BME280;40818;50.562;7.454;2023-07-13T18:46:19;97938.22;;;19.61;56.85
54918;BME280;40818;50.562;7.454;2023-07-13T18:56:25;97944.03;;;19.29;58.37
54918;BME280;40818;50.562;7.454;2023-07-13T19:06:29;97940.34;;;19.22;58.19
54918;BME280;40818;50.562;7.454;2023-07-13T19:16:35;97952.38;;;19.24;58.63
54918;BME280;40818;50.562;7.454;2023-07-13T19:26:39;97958.66;;;19.14;58.39
54918;BME280;40818;50.562;7.454;2023-07-13T19:36:46;97975.38;;;19.04;59.34
54918;BME280;40818;50.562;7.454;2023-07-13T19:46:50;97978.75;;;18.87;60.05
54918;BME280;40818;50.562;7.454;2023-07-13T19:56:56;98003.44;;;18.76;61.19
54918;BME280;40818;50.562;7.454;2023-07-13T20:07:00;98004.38;;;18.57;62.03
54918;BME280;40818;50.562;7.454;2023-07-13T20:17:19;98005.84;;;18.32;63.86
54918;BME280;40818;50.562;7.454;2023-07-13T20:27:24;98010.13;;;18.23;63.11
54918;BME280;40818;50.562;7.454;2023-07-13T20:37:37;98001.03;;;18.07;64.66
54918;BME280;40818;50.562;7.454;2023-07-13T20:47:42;98012.41;;;17.88;64.98
54918;BME280;40818;50.562;7.454;2023-07-13T20:57:49;98013.50;;;17.66;66.51
54918;BME280;40818;50.562;7.454;2023-07-13T21:07:53;98024.25;;;17.53;67.75
54918;BME280;40818;50.562;7.454;2023-07-13T21:18:00;98016.94;;;17.37;67.99
54918;BME280;40818;50.562;7.454;2023-07-13T21:28:04;98013.59;;;17.16;69.59
54918;BME280;40818;50.562;7.454;2023-07-13T21:38:16;98026.13;;;17.02;70.49
54918;BME280;40818;50.562;7.454;2023-07-13T21:48:20;98024.31;;;16.93;70.17
54918;BME280;40818;50.562;7.454;2023-07-13T21:58:29;98034.16;;;16.80;71.55
54918;BME280;40818;50.562;7.454;2023-07-13T22:08:34;98026.16;;;16.71;71.54
54918;BME280;40818;50.562;7.454;2023-07-13T22:18:41;98022.59;;;16.51;73.19
54918;BME280;40818;50.562;7.454;2023-07-13T22:28:47;98023.44;;;16.31;74.04
54918;BME280;40818;50.562;7.454;2023-07-13T22:38:53;98032.66;;;16.04;76.70
54918;BME280;40818;50.562;7.454;2023-07-13T22:48:58;98013.13;;;15.87;78.02
54918;BME280;40818;50.562;7.454;2023-07-13T22:59:07;98018.41;;;15.76;78.83
54918;BME280;40818;50.562;7.454;2023-07-13T23:09:13;98024.63;;;15.63;79.49
54918;BME280;40818;50.562;7.454;2023-07-13T23:19:25;98004.44;;;15.54;79.86
54918;BME280;40818;50.562;7.454;2023-07-13T23:29:30;98002.56;;;15.45;80.08
54918;BME280;40818;50.562;7.454;2023-07-13T23:39:36;97991.91;;;15.36;80.59
54918;BME280;40818;50.562;7.454;2023-07-13T23:49:39;97986.59;;;15.27;80.76
54918;BME280;40818;50.562;7.454;2023-07-13T23:59:45;97984.38;;;15.11;82.45
